Time;durP1;ratioP1;P1;durP2;ratioP2;P2;SDS_P1;SDS_P2;PMS_P1;PMS_P2;Temp;Humidity;BMP_temperature;BMP_pressure;BME280_temperature;BME280_humidity;BME280_pressure;Samples;Min_cycle;Max_cycle;Signal;HPM_P1;HPM_P2
2021/09/07 00:00:23;;;;;;;;;13.25;11.00;;;;;22.82;47.81;101840.38;5100825;27;45446;-57
2021/09/07 00:02:48;;;;;;;;;16.00;13.75;;;;;22.78;47.44;101843.19;5100291;27;45654;-57
2021/09/07 00:05:14;;;;;;;;;17.75;15.75;;;;;22.77;47.73;101838.81;5100537;27;46392;-57
2021/09/07 00:07:40;;;;;;;;;21.00;12.25;;;;;22.76;47.71;101846.88;5097095;27;45563;-57
2021/09/07 00:10:08;;;;;;;;;17.25;14.75;;;;;22.74;47.57;101836.38;5099333;27;45434;-57
2021/09/07 00:12:34;;;;;;;;;15.50;12.50;;;;;22.74;48.11;101844.31;5098634;27;45511;-57
2021/09/07 00:14:59;;;;;;;;;11.00;10.00;;;;;22.71;47.68;101838.34;5098233;27;45645;-57
2021/09/07 00:17:25;;;;;;;;;17.25;14.50;;;;;22.70;48.31;101848.09;5098318;27;45419;-57
2021/09/07 00:19:50;;;;;;;;;14.25;13.00;;;;;22.66;48.22;101841.28;5099002;27;45419;-57
2021/09/07 00:22:16;;;;;;;;;19.75;15.00;;;;;22.63;47.89;101837.97;5100433;27;45492;-57
2021/09/07 00:24:41;;;;;;;;;16.00;13.00;;;;;22.66;48.22;101845.75;5099991;27;46300;-59
2021/09/07 00:27:07;;;;;;;;;14.75;14.75;;;;;22.63;48.32;101841.47;5097636;27;45488;-58
2021/09/07 00:29:32;;;;;;;;;15.50;13.50;;;;;22.62;48.06;101844.19;5097960;27;45413;-58
2021/09/07 00:31:58;;;;;;;;;18.00;13.25;;;;;22.59;48.47;101850.53;5097192;27;45924;-58
2021/09/07 00:34:24;;;;;;;;;19.50;13.25;;;;;22.57;48.38;101843.63;5098262;27;46258;-58
2021/09/07 00:36:49;;;;;;;;;15.00;13.50;;;;;22.50;48.58;101837.84;5099270;27;45304;-58
2021/09/07 00:39:15;;;;;;;;;17.75;14.25;;;;;22.47;48.59;101830.09;5098043;27;45513;-57
2021/09/07 00:41:41;;;;;;;;;13.50;12.75;;;;;22.47;49.12;101832.75;5099781;27;45389;-58
2021/09/07 00:44:23;;;;;;;;;17.50;15.75;;;;;22.43;48.29;101828.59;5099172;27;46011;-58
2021/09/07 00:46:50;;;;;;;;;14.00;12.25;;;;;22.38;48.60;101820.88;5098522;27;45683;-57
2021/09/07 00:49:17;;;;;;;;;15.75;14.00;;;;;22.35;48.79;101820.22;5100143;27;45312;-57
2021/09/07 00:51:45;;;;;;;;;14.25;14.00;;;;;22.31;48.94;101822.22;5100111;27;45268;-57
2021/09/07 00:54:11;;;;;;;;;15.00;11.75;;;;;22.31;49.23;101824.00;5099047;27;45844;-57
2021/09/07 00:56:38;;;;;;;;;17.75;12.50;;;;;22.28;49.43;101826.84;5099255;27;45256;-57
2021/09/07 00:59:05;;;;;;;;;16.25;15.50;;;;;22.24;49.28;101828.81;5097603;27;45563;-57
2021/09/07 01:01:30;;;;;;;;;15.00;14.00;;;;;22.17;49.55;101814.22;5097168;27;45552;-57
2021/09/07 01:03:55;;;;;;;;;16.25;14.00;;;;;22.14;50.19;101819.69;5097281;27;46317;-57
2021/09/07 01:06:21;;;;;;;;;19.25;15.00;;;;;22.04;49.82;101815.88;5096997;27;45275;-57
2021/09/07 01:08:47;;;;;;;;;16.50;13.25;;;;;22.05;50.09;101817.59;5097451;27;45395;-57
2021/09/07 01:11:14;;;;;;;;;17.75;15.75;;;;;22.04;50.14;101819.41;5097227;27;45620;-56
2021/09/07 01:13:39;;;;;;;;;15.25;12.75;;;;;22.03;49.96;101811.53;5099274;27;46288;-56
2021/09/07 01:16:05;;;;;;;;;15.75;15.25;;;;;22.00;50.34;101801.94;5099317;27;45509;-58
2021/09/07 01:18:30;;;;;;;;;15.50;14.00;;;;;21.99;50.20;101804.66;5099835;27;45322;-58
2021/09/07 01:20:55;;;;;;;;;18.50;16.75;;;;;21.97;50.21;101807.41;5103517;27;45578;-62
2021/09/07 01:23:21;;;;;;;;;16.25;14.75;;;;;21.95;50.39;101804.00;5103433;27;46436;-61
2021/09/07 01:25:46;;;;;;;;;21.75;16.00;;;;;21.93;50.86;101797.94;5103031;27;45303;-62
2021/09/07 01:28:14;;;;;;;;;17.50;15.00;;;;;21.88;50.60;101800.03;5103065;27;45386;-62
2021/09/07 01:30:40;;;;;;;;;13.50;13.50;;;;;21.83;50.92;101796.78;5102748;27;45270;-61
2021/09/07 01:33:05;;;;;;;;;18.00;15.00;;;;;21.79;50.85;101793.44;5102902;27;45409;-60
2021/09/07 01:35:31;;;;;;;;;22.00;21.00;;;;;21.80;50.76;101787.22;5102829;27;45291;-60
2021/09/07 01:37:56;;;;;;;;;22.25;19.50;;;;;21.76;51.32;101796.28;5103278;27;45307;-61
2021/09/07 01:40:21;;;;;;;;;31.75;24.50;;;;;21.74;50.92;101790.22;5102813;27;45226;-61
2021/09/07 01:42:50;;;;;;;;;26.75;24.75;;;;;21.72;51.03;101786.81;5090860;27;46515;-60
2021/09/07 01:45:15;;;;;;;;;30.75;26.50;;;;;21.69;51.11;101789.63;5102575;27;45319;-60
2021/09/07 01:47:41;;;;;;;;;35.00;32.00;;;;;21.67;51.02;101780.94;5101230;27;45480;-61
2021/09/07 01:50:10;;;;;;;;;37.00;33.25;;;;;21.65;50.95;101785.47;5084160;27;45340;-61
2021/09/07 01:52:36;;;;;;;;;37.50;32.00;;;;;21.63;51.58;101781.22;5102725;27;46342;-61
2021/09/07 01:55:01;;;;;;;;;50.00;38.00;;;;;21.62;51.33;101782.13;5102680;27;45366;-61
2021/09/07 01:57:26;;;;;;;;;44.50;36.50;;;;;21.62;51.28;101785.63;5102850;27;45243;-61
2021/09/07 01:59:53;;;;;;;;;43.25;35.50;;;;;21.59;51.63;101788.44;5102432;27;45227;-61
2021/09/07 02:02:18;;;;;;;;;45.00;35.25;;;;;21.56;51.53;101784.19;5102023;27;46225;-61
2021/09/07 02:04:45;;;;;;;;;48.00;36.25;;;;;21.55;51.91;101787.78;5102367;27;45448;-61
2021/09/07 02:07:11;;;;;;;;;41.00;33.00;;;;;21.54;51.69;101787.84;5102479;27;45413;-59
2021/09/07 02:09:39;;;;;;;;;46.50;33.25;;;;;21.51;52.17;101785.41;5102243;27;45331;-59
2021/09/07 02:12:06;;;;;;;;;37.25;30.50;;;;;21.46;51.74;101776.88;5102513;27;46568;-60
2021/09/07 02:14:32;;;;;;;;;35.50;32.75;;;;;21.48;51.88;101790.88;5083573;27;45446;-61
2021/09/07 02:16:57;;;;;;;;;33.75;29.75;;;;;21.46;52.28;101788.31;5102214;27;45487;-60
2021/09/07 02:19:23;;;;;;;;;32.50;28.75;;;;;21.46;52.15;101785.66;5102262;27;45403;-59
2021/09/07 02:21:48;;;;;;;;;37.00;32.25;;;;;21.44;52.08;101789.34;5102702;27;46164;-59
2021/09/07 02:24:14;;;;;;;;;34.50;32.00;;;;;21.40;52.23;101777.19;5102109;27;45371;-59
2021/09/07 02:26:40;;;;;;;;;32.25;28.25;;;;;21.35;52.73;101777.47;5102547;27;45390;-58
2021/09/07 02:29:05;;;;;;;;;33.25;30.00;;;;;21.35;52.60;101785.41;5101752;27;45523;-59
2021/09/07 02:31:30;;;;;;;;;35.25;26.50;;;;;21.36;52.49;101779.16;5099595;27;47044;-58
2021/09/07 02:33:56;;;;;;;;;32.75;28.75;;;;;21.36;52.63;101779.16;5100873;27;45309;-58
2021/09/07 02:36:23;;;;;;;;;35.75;30.75;;;;;21.36;52.44;101771.22;5100394;27;45389;-58
2021/09/07 02:38:49;;;;;;;;;27.25;22.50;;;;;21.35;52.81;101768.69;5101838;27;45276;-59
2021/09/07 02:41:14;;;;;;;;;31.25;28.50;;;;;21.31;52.64;101760.06;5100634;27;45376;-62
2021/09/07 02:43:40;;;;;;;;;25.25;23.75;;;;;21.30;52.73;101753.06;5100127;27;45625;-63
2021/09/07 02:46:05;;;;;;;;;33.50;26.50;;;;;21.31;52.94;101756.56;5101851;27;45337;-63
2021/09/07 02:48:31;;;;;;;;;24.00;24.00;;;;;21.30;52.94;101755.72;5101452;27;45264;-63
2021/09/07 02:50:56;;;;;;;;;30.25;24.25;;;;;21.30;52.96;101749.59;5101759;27;45969;-63
2021/09/07 02:53:21;;;;;;;;;24.25;22.75;;;;;21.28;52.81;101752.31;5101707;27;45443;-59
2021/09/07 02:55:47;;;;;;;;;19.25;17.25;;;;;21.25;52.59;101747.22;5099691;27;45364;-59
2021/09/07 02:58:12;;;;;;;;;32.00;24.00;;;;;21.23;52.69;101749.91;5099148;27;45349;-59
2021/09/07 03:00:37;;;;;;;;;22.00;19.25;;;;;21.22;52.82;101742.91;5099048;27;45643;-59
2021/09/07 03:03:03;;;;;;;;;23.50;21.50;;;;;21.20;52.96;101739.47;5098916;27;45513;-59
2021/09/07 03:05:28;;;;;;;;;21.25;19.50;;;;;21.19;52.83;101744.84;5099368;27;45701;-59
2021/09/07 03:07:54;;;;;;;;;26.25;20.00;;;;;21.18;53.27;101743.16;5098515;27;45597;-59
2021/09/07 03:10:19;;;;;;;;;26.50;22.50;;;;;21.15;53.25;101738.88;5100433;27;46503;-59
2021/09/07 03:12:44;;;;;;;;;25.75;19.50;;;;;21.15;53.00;101738.88;5101049;27;45302;-59
2021/09/07 03:15:10;;;;;;;;;27.50;21.25;;;;;21.14;53.57;101734.53;5084186;27;45370;-59
2021/09/07 03:17:36;;;;;;;;;23.00;20.25;;;;;21.10;53.50;101730.38;5097521;27;45452;-59
2021/09/07 03:20:02;;;;;;;;;27.25;21.75;;;;;21.09;53.76;101739.22;5101348;27;46127;-59
2021/09/07 03:22:30;;;;;;;;;25.00;20.25;;;;;21.04;53.65;101741.28;5101688;27;45807;-59
2021/09/07 03:24:56;;;;;;;;;23.75;22.25;;;;;21.02;53.89;101740.50;5101407;27;45365;-59
2021/09/07 03:27:22;;;;;;;;;25.25;20.00;;;;;21.01;54.07;101743.22;5101144;27;45232;-59
2021/09/07 03:29:47;;;;;;;;;25.50;21.75;;;;;20.96;54.16;101739.06;5101002;27;45231;-59
2021/09/07 03:32:12;;;;;;;;;21.25;19.75;;;;;20.94;54.35;101735.66;5100767;27;45685;-59
2021/09/07 03:34:38;;;;;;;;;22.25;20.75;;;;;20.91;54.30;101730.53;5101238;27;45386;-59
2021/09/07 03:37:03;;;;;;;;;23.25;19.25;;;;;20.88;54.51;101733.34;5100927;27;45458;-59
2021/09/07 03:39:29;;;;;;;;;25.00;20.75;;;;;20.87;54.69;101723.72;5100899;27;46167;-59
2021/09/07 03:41:54;;;;;;;;;25.00;21.25;;;;;20.85;54.86;101730.88;5103156;27;45491;-62
2021/09/07 03:44:19;;;;;;;;;19.00;18.75;;;;;20.86;54.31;101734.38;5083680;27;45373;-62
2021/09/07 03:46:45;;;;;;;;;24.75;21.75;;;;;20.83;54.92;101730.09;5100382;27;45369;-62
2021/09/07 03:49:10;;;;;;;;;28.50;22.50;;;;;20.82;54.89;101728.41;5100247;27;45325;-62
2021/09/07 03:51:35;;;;;;;;;23.75;23.75;;;;;20.79;54.50;101728.53;5100376;27;45263;-60
2021/09/07 03:54:01;;;;;;;;;25.25;23.00;;;;;20.79;54.92;101727.69;5082066;27;45420;-60
2021/09/07 03:56:27;;;;;;;;;22.75;21.00;;;;;20.77;55.04;101721.63;5100205;27;45423;-59
2021/09/07 03:58:52;;;;;;;;;24.00;19.00;;;;;20.75;54.92;101718.22;5100239;27;45482;-60
2021/09/07 04:01:19;;;;;;;;;20.00;17.50;;;;;20.75;54.95;101716.44;5099063;27;45300;-60
2021/09/07 04:03:44;;;;;;;;;19.50;17.75;;;;;20.71;55.73;101720.19;5100333;27;45228;-62
2021/09/07 04:06:09;;;;;;;;;26.75;21.25;;;;;20.67;55.67;101720.44;5099946;27;45544;-61
2021/09/07 04:08:35;;;;;;;;;20.25;19.00;;;;;20.63;55.98;101725.06;5099193;27;45427;-59
2021/09/07 04:11:00;;;;;;;;;24.75;22.00;;;;;20.58;55.49;101721.78;5099126;27;45404;-58
2021/09/07 04:13:25;;;;;;;;;21.50;19.25;;;;;20.55;55.50;101725.44;5100009;27;45466;-58
2021/09/07 04:15:51;;;;;;;;;19.75;18.50;;;;;20.53;55.63;101723.81;5099531;27;45355;-58
2021/09/07 04:18:16;;;;;;;;;23.50;21.00;;;;;20.53;55.89;101723.81;5098624;27;46254;-58
2021/09/07 04:20:42;;;;;;;;;29.25;23.25;;;;;20.52;55.81;101728.25;5098970;27;45368;-58
2021/09/07 04:23:07;;;;;;;;;24.50;19.25;;;;;20.49;56.42;101727.56;5099284;27;45370;-58
2021/09/07 04:25:33;;;;;;;;;25.25;20.75;;;;;20.46;55.77;101733.88;5099042;27;45668;-58
2021/09/07 04:27:58;;;;;;;;;29.00;23.25;;;;;20.46;56.84;101738.31;5099585;27;46115;-57
2021/09/07 04:30:23;;;;;;;;;23.75;21.50;;;;;20.47;56.62;101740.00;5099909;27;45556;-58
2021/09/07 04:32:49;;;;;;;;;31.00;22.00;;;;;20.46;56.28;101735.66;5099946;27;45354;-59
2021/09/07 04:35:15;;;;;;;;;24.50;22.25;;;;;20.43;56.24;101744.59;5099883;27;45355;-58
2021/09/07 04:37:41;;;;;;;;;27.00;23.25;;;;;20.42;56.39;101747.28;5099626;27;45422;-64
2021/09/07 04:40:07;;;;;;;;;23.75;23.50;;;;;20.41;56.39;101742.94;5099634;27;45312;-61
2021/09/07 04:42:32;;;;;;;;;28.25;24.50;;;;;20.39;57.21;101750.91;5099270;27;45382;-61
2021/09/07 04:44:57;;;;;;;;;25.25;20.50;;;;;20.37;56.89;101755.44;5097339;27;45420;-60
2021/09/07 04:47:23;;;;;;;;;29.75;24.75;;;;;20.36;56.97;101756.38;5096825;27;45348;-60
2021/09/07 04:49:48;;;;;;;;;31.75;19.50;;;;;20.34;57.06;101756.44;5096842;27;45698;-57
2021/09/07 04:52:13;;;;;;;;;32.50;23.25;;;;;20.34;57.45;101755.59;5098533;27;45321;-58
2021/09/07 04:54:39;;;;;;;;;30.00;24.25;;;;;20.32;57.56;101755.69;5100898;27;45331;-57
2021/09/07 04:57:04;;;;;;;;;32.00;26.50;;;;;20.34;57.68;101760.88;5103009;27;45345;-59
2021/09/07 04:59:30;;;;;;;;;25.25;23.75;;;;;20.33;57.30;101759.16;5102580;27;45630;-58
2021/09/07 05:01:55;;;;;;;;;26.50;24.00;;;;;20.32;57.62;101755.69;5101465;27;45351;-58
2021/09/07 05:04:20;;;;;;;;;28.25;27.75;;;;;20.27;57.90;101759.50;5101176;27;45429;-58
2021/09/07 05:06:46;;;;;;;;;30.75;24.25;;;;;20.24;57.68;101754.38;5101927;27;45351;-58
2021/09/07 05:09:11;;;;;;;;;26.75;22.00;;;;;20.22;57.47;101750.94;5101780;27;45466;-59
2021/09/07 05:11:37;;;;;;;;;28.25;25.25;;;;;20.23;57.97;101750.88;5103162;27;45363;-57
2021/09/07 05:14:02;;;;;;;;;26.75;26.25;;;;;20.24;57.64;101759.66;5101183;27;45422;-59
2021/09/07 05:16:28;;;;;;;;;36.00;31.25;;;;;20.23;58.00;101760.59;5099623;27;45504;-59
2021/09/07 05:18:53;;;;;;;;;35.00;28.50;;;;;20.15;58.18;101753.03;5099041;27;45823;-57
2021/09/07 05:21:18;;;;;;;;;27.75;26.00;;;;;20.18;58.61;101763.44;5099594;27;45469;-57
2021/09/07 05:23:44;;;;;;;;;28.25;23.75;;;;;20.14;58.44;101764.53;5100002;27;45338;-60
2021/09/07 05:26:09;;;;;;;;;27.50;23.75;;;;;20.10;58.26;101763.00;5100070;27;45306;-60
2021/09/07 05:28:34;;;;;;;;;33.50;24.75;;;;;20.11;58.34;101762.06;5099973;27;45603;-60
2021/09/07 05:31:00;;;;;;;;;30.00;25.00;;;;;20.14;58.38;101767.19;5082108;27;45296;-57
2021/09/07 05:33:25;;;;;;;;;30.50;26.00;;;;;20.14;58.72;101761.91;5101589;27;45464;-57
2021/09/07 05:35:51;;;;;;;;;27.50;25.50;;;;;20.12;58.62;101763.75;5101532;27;45380;-58
2021/09/07 05:38:17;;;;;;;;;50.00;41.00;;;;;20.15;58.42;101771.53;5101631;27;45501;-58
2021/09/07 05:40:43;;;;;;;;;35.00;28.50;;;;;20.16;58.45;101775.88;5102016;27;45542;-59
2021/09/07 05:43:08;;;;;;;;;29.25;27.50;;;;;20.17;58.79;101763.53;5101966;27;45200;-61
2021/09/07 05:45:33;;;;;;;;;30.50;27.25;;;;;20.19;58.45;101767.78;5064621;28;46197;-62
2021/09/07 05:47:59;;;;;;;;;34.00;24.00;;;;;20.21;58.49;101768.56;5077854;27;45428;-61
2021/09/07 05:50:24;;;;;;;;;28.00;25.50;;;;;20.23;58.71;101768.50;5102718;27;45181;-60
2021/09/07 05:52:50;;;;;;;;;28.50;23.75;;;;;20.21;58.85;101773.84;5102481;27;45408;-61
2021/09/07 05:55:16;;;;;;;;;29.00;24.00;;;;;20.24;58.43;101773.72;5100772;27;45313;-60
2021/09/07 05:57:42;;;;;;;;;28.75;22.50;;;;;20.26;58.96;101777.13;5099701;27;45396;-59
2021/09/07 06:00:10;;;;;;;;;27.75;27.00;;;;;20.26;58.53;101777.13;5064004;27;45525;-59
2021/09/07 06:02:36;;;;;;;;;48.50;37.50;;;;;20.23;58.56;101772.00;5099779;27;45599;-59
2021/09/07 06:05:02;;;;;;;;;31.50;28.50;;;;;20.32;58.69;101778.59;5100837;27;45444;-59
2021/09/07 06:07:28;;;;;;;;;30.50;25.00;;;;;20.35;58.89;101779.28;5099127;27;45831;-59
2021/09/07 06:09:53;;;;;;;;;25.25;22.25;;;;;20.38;58.34;101783.53;5100134;27;45445;-59
2021/09/07 06:12:19;;;;;;;;;32.25;25.00;;;;;20.42;58.57;101776.34;5100770;27;45291;-59
2021/09/07 06:14:44;;;;;;;;;30.75;26.25;;;;;20.47;58.14;101776.97;5099755;27;45476;-58
2021/09/07 06:17:10;;;;;;;;;28.00;23.75;;;;;20.50;58.13;101780.31;5100298;27;45374;-58
2021/09/07 06:19:35;;;;;;;;;30.25;28.00;;;;;20.54;58.28;101770.41;5100856;27;45327;-58
2021/09/07 06:22:01;;;;;;;;;21.25;18.50;;;;;20.57;58.02;101770.25;5101819;27;45493;-58
2021/09/07 06:24:27;;;;;;;;;32.50;26.25;;;;;20.61;57.98;101771.78;5101038;27;45353;-58
2021/09/07 06:26:52;;;;;;;;;25.25;20.50;;;;;20.64;57.97;101771.66;5101216;27;45266;-58
2021/09/07 06:29:17;;;;;;;;;28.75;23.00;;;;;20.67;57.72;101766.22;5099972;27;45294;-58
2021/09/07 06:31:43;;;;;;;;;25.50;20.00;;;;;20.68;57.68;101767.06;5100569;27;45451;-58
2021/09/07 06:34:08;;;;;;;;;28.50;23.25;;;;;20.72;57.51;101773.88;5101116;27;45379;-58
2021/09/07 06:36:33;;;;;;;;;22.50;21.00;;;;;20.77;57.21;101775.34;5101208;27;45333;-58
2021/09/07 06:38:59;;;;;;;;;25.00;22.75;;;;;20.81;57.65;101779.50;5101252;27;45298;-58
2021/09/07 06:41:24;;;;;;;;;23.75;19.75;;;;;20.82;57.44;101781.25;5101034;27;45335;-58
2021/09/07 06:43:49;;;;;;;;;29.25;22.25;;;;;20.85;57.18;101780.22;5100725;27;45415;-58
2021/09/07 06:46:15;;;;;;;;;30.75;25.00;;;;;20.88;56.96;101780.91;5100655;27;45287;-59
2021/09/07 06:48:40;;;;;;;;;28.00;23.75;;;;;20.98;56.72;101785.69;5100344;27;45463;-56
2021/09/07 06:51:06;;;;;;;;;26.00;21.75;;;;;21.04;57.01;101786.22;5101115;27;45301;-57
2021/09/07 06:53:31;;;;;;;;;29.00;24.00;;;;;21.13;56.81;101792.78;5100505;27;46599;-57
2021/09/07 06:55:57;;;;;;;;;31.00;25.00;;;;;21.20;56.35;101792.34;5100989;27;45379;-57
2021/09/07 06:58:22;;;;;;;;;26.50;24.00;;;;;21.28;56.36;101789.34;5100804;27;45556;-57
2021/09/07 07:00:48;;;;;;;;;24.00;21.75;;;;;21.37;56.26;101794.09;5100136;27;45254;-57
2021/09/07 07:03:14;;;;;;;;;29.25;25.75;;;;;21.44;55.54;101787.53;5100599;27;46293;-57
2021/09/07 07:05:45;;;;;;;;;30.50;26.50;;;;;21.50;55.76;101784.53;5101055;27;45322;-57
2021/09/07 07:08:10;;;;;;;;;25.00;22.50;;;;;21.61;55.19;101791.00;5099223;27;45327;-58
2021/09/07 07:10:36;;;;;;;;;27.25;20.50;;;;;21.67;55.43;101782.72;5100609;27;45300;-58
2021/09/07 07:13:01;;;;;;;;;25.50;23.50;;;;;21.78;55.15;101785.59;5100358;27;45431;-61
2021/09/07 07:15:27;;;;;;;;;28.25;24.25;;;;;21.87;54.94;101787.72;5099990;27;45291;-61
2021/09/07 07:17:52;;;;;;;;;29.25;25.75;;;;;21.97;54.35;101788.88;5099328;27;45354;-61
2021/09/07 07:20:17;;;;;;;;;29.25;25.00;;;;;22.05;54.43;101780.53;5095600;27;45695;-60
2021/09/07 07:22:43;;;;;;;;;27.25;23.00;;;;;22.16;54.20;101786.88;5099779;27;45460;-60
2021/09/07 07:25:09;;;;;;;;;24.50;22.00;;;;;22.24;54.14;101793.53;5100679;27;45343;-61
2021/09/07 07:27:38;;;;;;;;;27.25;21.50;;;;;22.31;53.73;101795.72;5100771;27;45390;-61
2021/09/07 07:30:33;;;;;;;;;24.00;22.75;;;;;22.45;53.38;101801.06;5081220;27;45469;-61
2021/09/07 07:33:10;;;;;;;;;29.00;23.25;;;;;22.58;53.33;101801.16;5089708;27;46156;-60
2021/09/07 07:35:41;;;;;;;;;30.00;26.75;;;;;22.71;52.85;101806.56;5100615;27;45673;-61
2021/09/07 07:38:08;;;;;;;;;26.25;24.50;;;;;22.80;52.43;101802.47;5082168;27;45431;-60
2021/09/07 07:40:37;;;;;;;;;26.25;26.00;;;;;22.91;52.19;101810.66;5082125;27;45559;-58
2021/09/07 07:43:25;;;;;;;;;24.00;23.25;;;;;22.91;52.09;101806.22;5093484;27;46057;-61
2021/09/07 07:45:53;;;;;;;;;29.75;23.00;;;;;22.99;51.57;101811.88;5098055;27;46122;-60
2021/09/07 07:48:19;;;;;;;;;29.50;25.75;;;;;23.09;51.23;101806.00;5099178;27;45474;-62
2021/09/07 07:50:44;;;;;;;;;26.75;24.25;;;;;23.17;51.67;101807.22;5100435;27;45310;-62
2021/09/07 07:53:10;;;;;;;;;29.75;24.25;;;;;23.23;51.05;101809.50;5100153;27;45964;-62
2021/09/07 07:55:35;;;;;;;;;31.75;28.00;;;;;23.33;51.16;101809.75;5079009;27;45356;-60
2021/09/07 07:58:00;;;;;;;;;31.25;28.25;;;;;23.44;50.85;101803.78;5088296;27;45412;-60
2021/09/07 08:00:26;;;;;;;;;30.75;25.50;;;;;23.51;50.66;101803.25;5090362;27;45425;-58
2021/09/07 08:02:51;;;;;;;;;29.25;24.25;;;;;23.56;49.99;101808.25;5099584;27;45392;-59
2021/09/07 08:05:16;;;;;;;;;27.50;24.50;;;;;23.59;50.05;101803.63;5099862;27;45425;-59
2021/09/07 08:07:42;;;;;;;;;27.75;25.25;;;;;23.67;49.79;101811.97;5099690;27;45349;-59
2021/09/07 08:10:08;;;;;;;;;18.00;17.25;;;;;23.77;49.63;101800.72;5100134;27;46341;-61
2021/09/07 08:12:33;;;;;;;;;26.25;25.75;;;;;23.79;49.80;101818.25;5099767;27;45354;-58
2021/09/07 08:14:59;;;;;;;;;24.25;22.25;;;;;23.82;49.66;101809.22;5099812;27;45437;-58
2021/09/07 08:17:24;;;;;;;;;16.00;16.00;;;;;23.90;49.08;101810.44;5099235;27;45431;-58
2021/09/07 08:19:49;;;;;;;;;32.50;27.50;;;;;24.02;48.41;101805.25;5099425;27;45421;-58
2021/09/07 08:22:15;;;;;;;;;24.50;22.00;;;;;24.13;48.88;101805.41;5100022;27;46443;-59
2021/09/07 08:24:42;;;;;;;;;62.25;48.25;;;;;24.23;48.62;101801.16;5099835;27;45259;-59
2021/09/07 08:27:07;;;;;;;;;27.00;24.25;;;;;24.30;48.25;101801.63;5099701;27;45212;-58
2021/09/07 08:29:32;;;;;;;;;28.75;22.75;;;;;24.39;48.12;101796.53;5098683;27;45510;-50
2021/09/07 08:31:58;;;;;;;;;28.00;23.25;;;;;24.47;47.65;101804.84;5099434;27;45215;-47
2021/09/07 08:34:24;;;;;;;;;25.25;21.50;;;;;24.62;47.91;101796.72;5099789;27;45407;-50
2021/09/07 08:36:49;;;;;;;;;22.00;20.00;;;;;24.75;47.92;101808.22;5100104;27;45346;-48
2021/09/07 08:39:15;;;;;;;;;28.75;24.50;;;;;24.87;47.09;101813.53;5099802;27;45409;-49
2021/09/07 08:41:42;;;;;;;;;34.50;24.75;;;;;25.00;47.96;101805.56;5099227;27;45666;-49
2021/09/07 08:44:07;;;;;;;;;26.75;24.00;;;;;25.13;47.31;101798.41;5099438;27;45288;-48
2021/09/07 08:46:33;;;;;;;;;21.50;18.75;;;;;25.30;46.80;101809.66;5099201;27;45380;-50
2021/09/07 08:48:59;;;;;;;;;25.50;24.00;;;;;25.35;46.86;101808.34;5099466;27;45429;-50
2021/09/07 08:51:24;;;;;;;;;27.50;22.00;;;;;25.43;46.41;101806.00;5099471;27;46103;-50
2021/09/07 08:53:49;;;;;;;;;27.25;21.25;;;;;25.42;45.18;101806.06;5099664;27;45234;-47
2021/09/07 08:56:15;;;;;;;;;27.75;23.75;;;;;25.48;46.04;101802.97;5099691;27;45214;-46
2021/09/07 08:58:40;;;;;;;;;27.75;21.25;;;;;25.58;45.84;101806.66;5099165;27;45454;-50
2021/09/07 09:01:17;;;;;;;;;27.75;23.25;;;;;25.66;44.98;101803.44;5098527;27;45463;-50
2021/09/07 09:03:47;;;;;;;;;25.25;21.25;;;;;25.74;44.89;101798.41;5099287;27;45438;-46
2021/09/07 09:06:23;;;;;;;;;22.00;21.75;;;;;25.73;44.27;101800.22;5099234;27;45318;-49
2021/09/07 09:08:48;;;;;;;;;22.50;19.00;;;;;25.73;43.54;101797.56;5090925;27;45327;-47
2021/09/07 09:11:14;;;;;;;;;22.75;18.00;;;;;25.74;43.43;101801.94;5099009;27;46702;-49
2021/09/07 09:13:59;;;;;;;;;19.50;17.75;;;;;25.88;43.78;101810.72;5099335;27;45367;-48
2021/09/07 09:16:30;;;;;;;;;17.00;15.00;;;;;25.97;43.16;101807.34;5099007;27;45267;-47
2021/09/07 09:18:56;;;;;;;;;21.00;18.00;;;;;26.02;42.72;101810.50;5081250;27;45606;-51
2021/09/07 09:21:32;;;;;;;;;20.50;17.25;;;;;26.09;42.22;101814.41;5088515;27;46713;-47
2021/09/07 09:24:14;;;;;;;;;24.50;20.50;;;;;26.12;41.39;101803.53;5099030;27;45313;-48
2021/09/07 09:26:52;;;;;;;;;16.75;16.25;;;;;26.21;42.56;101807.28;5099476;27;45351;-48
2021/09/07 09:29:26;;;;;;;;;26.00;23.50;;;;;26.32;41.75;101802.84;5098834;27;45533;-48
2021/09/07 09:31:57;;;;;;;;;17.00;15.25;;;;;26.46;41.85;101806.31;5098741;27;46280;-48
2021/09/07 09:34:23;;;;;;;;;17.25;15.25;;;;;26.54;41.87;101810.06;5087592;27;45658;-51
2021/09/07 09:37:08;;;;;;;;;19.25;16.00;;;;;26.60;40.90;101803.38;5099297;27;45619;-49
2021/09/07 09:39:41;;;;;;;;;20.50;19.75;;;;;26.67;40.96;101807.28;5099109;27;45452;-50
2021/09/07 09:42:08;;;;;;;;;19.50;17.25;;;;;26.68;41.09;101801.00;5102011;27;46495;-47
2021/09/07 09:44:33;;;;;;;;;22.50;17.25;;;;;26.70;40.39;101796.38;5102698;27;45384;-46
2021/09/07 09:46:59;;;;;;;;;19.75;17.25;;;;;26.81;40.47;101784.84;5101938;27;45516;-50
2021/09/07 09:49:28;;;;;;;;;19.00;18.00;;;;;26.96;40.60;101796.97;5102689;27;45476;-48
2021/09/07 09:52:06;;;;;;;;;20.25;19.00;;;;;27.05;40.61;101785.63;5102008;27;46570;-49
2021/09/07 09:54:34;;;;;;;;;21.00;14.75;;;;;27.15;40.55;101791.03;5102238;27;45631;-47
2021/09/07 09:57:01;;;;;;;;;17.75;16.75;;;;;27.24;39.92;101785.81;5102339;27;45425;-49
2021/09/07 09:59:28;;;;;;;;;15.50;14.25;;;;;27.31;40.49;101782.66;5101384;27;45440;-47
2021/09/07 10:01:54;;;;;;;;;17.25;17.00;;;;;27.34;40.18;101777.91;5083463;27;46195;-48
2021/09/07 10:04:20;;;;;;;;;18.00;16.50;;;;;27.45;39.98;101772.53;5101874;27;45280;-49
2021/09/07 10:06:51;;;;;;;;;17.00;17.00;;;;;27.50;39.92;101772.16;5101904;27;45432;-50
2021/09/07 10:09:18;;;;;;;;;18.25;15.00;;;;;27.51;39.32;101768.50;5101629;27;45419;-47
2021/09/07 10:11:49;;;;;;;;;16.50;16.50;;;;;27.56;39.58;101774.31;5082696;27;46574;-48
2021/09/07 10:14:17;;;;;;;;;21.25;18.75;;;;;27.62;39.86;101759.59;5100462;27;45629;-49
2021/09/07 10:16:46;;;;;;;;;16.00;14.25;;;;;27.68;39.11;101759.13;5100838;27;45369;-49
2021/09/07 10:19:58;;;;;;;;;16.75;14.50;;;;;27.73;38.09;101752.41;5096542;27;45607;-49
2021/09/07 10:25:58;;;;;;;;;19.25;16.75;;;;;27.91;39.20;101752.69;5101448;27;45621;-50
2021/09/07 10:28:43;;;;;;;;;17.00;16.25;;;;;27.96;39.01;101742.47;5101401;27;45315;-51
2021/09/07 10:31:21;;;;;;;;;18.50;16.25;;;;;27.99;37.48;101736.00;5089736;27;45450;-61
2021/09/07 10:34:01;;;;;;;;;16.00;16.00;;;;;28.06;37.20;101731.84;5100599;27;46201;-62
2021/09/07 10:36:32;;;;;;;;;19.25;13.25;;;;;28.19;36.07;101727.97;5101365;27;45611;-60
2021/09/07 10:39:03;;;;;;;;;14.00;13.75;;;;;28.30;35.91;101727.09;5098258;27;45284;-61
2021/09/07 10:41:28;;;;;;;;;16.25;13.25;;;;;28.38;35.54;101726.41;5101124;27;45177;-64
2021/09/07 10:44:02;;;;;;;;;17.75;14.00;;;;;28.46;35.81;101723.94;5100685;27;45657;-64
2021/09/07 10:46:45;;;;;;;;;18.00;14.50;;;;;28.53;35.23;101713.53;5084470;27;45369;-57
2021/09/07 10:49:24;;;;;;;;;24.75;18.00;;;;;28.54;34.99;101710.72;5100707;27;45499;-58
2021/09/07 10:52:09;;;;;;;;;20.75;17.00;;;;;28.65;34.80;101710.63;5100068;27;45283;-58
2021/09/07 10:55:08;;;;;;;;;19.00;16.00;;;;;28.73;35.86;101712.63;5100692;27;45574;-58
2021/09/07 10:57:34;;;;;;;;;13.00;10.75;;;;;28.81;33.69;101698.53;5100779;27;45652;-58
2021/09/07 11:00:03;;;;;;;;;17.50;14.75;;;;;28.78;33.59;101692.47;5082330;27;45323;-57
2021/09/07 11:02:41;;;;;;;;;16.25;13.75;;;;;28.81;34.36;101698.53;5100397;27;45460;-57
2021/09/07 11:05:11;;;;;;;;;18.00;15.75;;;;;28.87;33.88;101682.84;5089936;27;45367;-58
2021/09/07 11:07:40;;;;;;;;;15.25;13.75;;;;;28.89;34.65;101682.69;5100164;27;45289;-58
2021/09/07 11:10:27;;;;;;;;;11.50;11.25;;;;;28.95;33.80;101671.44;5101222;27;45257;-58
2021/09/07 11:12:55;;;;;;;;;16.75;15.75;;;;;29.04;34.91;101667.94;5099958;27;45374;-57